Time;durP1;ratioP1;P1;durP2;ratioP2;P2;SDS_P1;SDS_P2;PMS_P1;PMS_P2;Temp;Humidity;BMP_temperature;BMP_pressure;BME280_temperature;BME280_humidity;BME280_pressure;Samples;Min_cycle;Max_cycle;Signal;HPM_P1;HPM_P2
2022/09/08 00:01:23;;;;;;;17.17;10.20;;;;;;;;;;5030394;28;20579;-90
2022/09/08 00:04:15;;;;;;;14.90;10.30;;;;;;;;;;5055362;28;20048;-91
2022/09/08 00:06:47;;;;;;;14.18;10.20;;;;;;;;;;5047395;28;20041;-89
2022/09/08 00:13:48;;;;;;;13.05;9.07;;;;;;;;;;5052475;28;20908;-90
2022/09/08 00:16:19;;;;;;;15.45;10.10;;;;;;;;;;5016528;28;20160;-90
2022/09/08 00:19:15;;;;;;;15.48;9.73;;;;;;;;;;5016564;28;20444;-90
2022/09/08 00:21:44;;;;;;;16.25;9.20;;;;;;;;;;5052772;28;20060;-90
2022/09/08 00:24:12;;;;;;;13.88;9.23;;;;;;;;;;5034389;28;20033;-91
2022/09/08 00:27:05;;;;;;;15.68;9.85;;;;;;;;;;5031943;28;20120;-90
2022/09/08 00:29:39;;;;;;;12.20;9.35;;;;;;;;;;5020393;28;20486;-96
2022/09/08 00:32:07;;;;;;;13.48;9.05;;;;;;;;;;5001513;28;20053;-96
2022/09/08 00:34:35;;;;;;;14.88;9.65;;;;;;;;;;5002322;28;20480;-96
2022/09/08 00:37:07;;;;;;;16.85;9.55;;;;;;;;;;5001702;28;20108;-96
2022/09/08 00:39:59;;;;;;;13.10;9.35;;;;;;;;;;5051578;28;20037;-90
2022/09/08 00:43:04;;;;;;;15.27;9.10;;;;;;;;;;5037142;28;20030;-90
2022/09/08 00:45:43;;;;;;;13.13;9.70;;;;;;;;;;5031245;28;20087;-91
2022/09/08 00:48:17;;;;;;;12.82;9.32;;;;;;;;;;5067060;28;20056;-89
2022/09/08 00:51:09;;;;;;;13.90;9.52;;;;;;;;;;5054730;28;20046;-89
2022/09/08 00:53:38;;;;;;;13.95;10.63;;;;;;;;;;5036789;28;20048;-91
2022/09/08 00:56:06;;;;;;;14.20;9.35;;;;;;;;;;5014298;28;20091;-90
2022/09/08 00:58:41;;;;;;;12.80;9.68;;;;;;;;;;5037555;28;20487;-91
2022/09/08 01:01:14;;;;;;;11.65;9.10;;;;;;;;;;5034894;28;20045;-90
2022/09/08 01:03:46;;;;;;;13.07;9.40;;;;;;;;;;5002724;28;20053;-90
2022/09/08 01:06:18;;;;;;;12.32;9.38;;;;;;;;;;5034262;28;20057;-91
2022/09/08 01:15:06;;;;;;;13.52;8.90;;;;;;;;;;5039279;28;20042;-96
2022/09/08 01:18:12;;;;;;;14.52;9.48;;;;;;;;;;5024681;28;20046;-90
2022/09/08 01:21:27;;;;;;;12.68;9.35;;;;;;;;;;5046933;28;20501;-90
2022/09/08 01:24:17;;;;;;;15.02;9.60;;;;;;;;;;5048609;28;20049;-90
2022/09/08 01:27:32;;;;;;;12.02;8.90;;;;;;;;;;5034697;28;20061;-90
2022/09/08 01:30:08;;;;;;;13.57;9.30;;;;;;;;;;4977464;28;20054;-90
2022/09/08 01:32:41;;;;;;;13.95;9.70;;;;;;;;;;4979419;28;20141;-90
2022/09/08 01:35:31;;;;;;;13.88;9.52;;;;;;;;;;4990681;28;20042;-90
2022/09/08 01:38:05;;;;;;;16.65;9.63;;;;;;;;;;4962980;28;20094;-89
2022/09/08 01:40:33;;;;;;;13.20;9.13;;;;;;;;;;4977680;28;20070;-89
2022/09/08 01:43:01;;;;;;;11.85;9.10;;;;;;;;;;4975997;28;20042;-90
2022/09/08 01:45:34;;;;;;;12.63;8.98;;;;;;;;;;4959508;28;20043;-90
2022/09/08 01:48:01;;;;;;;17.08;9.55;;;;;;;;;;4993772;28;20145;-95
2022/09/08 01:50:34;;;;;;;17.50;9.02;;;;;;;;;;4966212;28;20054;-96
2022/09/08 01:53:01;;;;;;;11.48;8.75;;;;;;;;;;4981047;28;20049;-96
2022/09/08 01:55:30;;;;;;;12.43;8.38;;;;;;;;;;4981600;28;20120;-94
2022/09/08 01:58:10;;;;;;;14.82;9.10;;;;;;;;;;4983969;28;20081;-95
2022/09/08 02:00:42;;;;;;;11.88;8.60;;;;;;;;;;4982423;28;20160;-93
2022/09/08 02:03:11;;;;;;;16.15;9.13;;;;;;;;;;4975328;28;20469;-95
2022/09/08 02:05:41;;;;;;;13.02;9.10;;;;;;;;;;5024147;28;20419;-95
2022/09/08 02:08:10;;;;;;;13.13;9.00;;;;;;;;;;5042544;28;20041;-90
2022/09/08 02:11:03;;;;;;;13.38;9.18;;;;;;;;;;5035703;28;20044;-91
2022/09/08 02:13:37;;;;;;;13.95;9.18;;;;;;;;;;5046587;28;20080;-90
2022/09/08 02:16:11;;;;;;;12.38;8.90;;;;;;;;;;5049114;28;20449;-90
2022/09/08 02:18:43;;;;;;;13.00;8.85;;;;;;;;;;5068157;28;20505;-90
2022/09/08 02:21:20;;;;;;;11.93;8.73;;;;;;;;;;5032350;28;20052;-90
2022/09/08 02:23:54;;;;;;;12.32;9.13;;;;;;;;;;5011188;28;20125;-90
2022/09/08 02:26:24;;;;;;;14.50;9.23;;;;;;;;;;5032268;28;20136;-90
2022/09/08 02:28:57;;;;;;;11.68;8.52;;;;;;;;;;5028925;28;20509;-90
2022/09/08 02:31:30;;;;;;;11.95;8.68;;;;;;;;;;5030822;28;20202;-90
2022/09/08 02:33:59;;;;;;;13.10;8.93;;;;;;;;;;5036011;28;20477;-96
2022/09/08 02:36:27;;;;;;;14.35;8.70;;;;;;;;;;5050884;28;20144;-90
2022/09/08 02:42:18;;;;;;;11.93;8.32;;;;;;;;;;5064539;28;20041;-90
2022/09/08 02:44:53;;;;;;;13.00;8.57;;;;;;;;;;5047593;28;20963;-91
2022/09/08 02:47:26;;;;;;;12.02;8.38;;;;;;;;;;5049452;28;20045;-95
2022/09/08 02:49:59;;;;;;;16.00;8.68;;;;;;;;;;5032557;28;20034;-90
2022/09/08 02:52:51;;;;;;;11.95;8.68;;;;;;;;;;5029111;28;20037;-90
2022/09/08 02:55:19;;;;;;;13.30;8.50;;;;;;;;;;5049759;28;20049;-90
2022/09/08 02:58:13;;;;;;;16.92;8.13;;;;;;;;;;5027163;28;20041;-90
2022/09/08 03:00:44;;;;;;;11.85;7.68;;;;;;;;;;5047646;28;20046;-90
2022/09/08 03:03:13;;;;;;;13.38;8.43;;;;;;;;;;5032835;28;20046;-90
2022/09/08 03:05:41;;;;;;;11.27;7.80;;;;;;;;;;5051394;28;20024;-90
2022/09/08 03:08:09;;;;;;;13.95;8.07;;;;;;;;;;5009593;28;20045;-95
2022/09/08 03:10:37;;;;;;;13.93;8.30;;;;;;;;;;5035751;28;20054;-96
2022/09/08 03:13:06;;;;;;;12.05;7.65;;;;;;;;;;5017780;28;20494;-95
2022/09/08 03:15:36;;;;;;;13.45;8.75;;;;;;;;;;5017602;28;20030;-96
2022/09/08 03:18:04;;;;;;;10.15;7.50;;;;;;;;;;5036168;28;20050;-90
2022/09/08 03:20:36;;;;;;;9.85;7.35;;;;;;;;;;5033758;28;20045;-90
2022/09/08 03:23:07;;;;;;;12.80;7.55;;;;;;;;;;5027121;28;20046;-90
2022/09/08 03:25:39;;;;;;;11.27;7.32;;;;;;;;;;5014463;28;20050;-89
2022/09/08 03:28:09;;;;;;;9.15;6.97;;;;;;;;;;5019884;28;20080;-90
2022/09/08 03:30:37;;;;;;;10.90;7.35;;;;;;;;;;5016331;28;20092;-90
2022/09/08 03:33:08;;;;;;;13.27;6.95;;;;;;;;;;4995871;28;20072;-90
2022/09/08 03:36:04;;;;;;;10.02;6.70;;;;;;;;;;5062901;28;20025;-90
2022/09/08 03:38:35;;;;;;;15.73;8.15;;;;;;;;;;5038434;28;20080;-90
2022/09/08 03:41:31;;;;;;;8.27;6.43;;;;;;;;;;5054192;28;20037;-90
2022/09/08 03:43:59;;;;;;;10.60;7.07;;;;;;;;;;5030319;28;20513;-90
2022/09/08 03:46:44;;;;;;;10.38;7.32;;;;;;;;;;5036874;28;20038;-90
2022/09/08 03:49:13;;;;;;;14.20;8.05;;;;;;;;;;5037538;28;20399;-95
2022/09/08 03:51:41;;;;;;;10.35;7.28;;;;;;;;;;5038581;28;20054;-95
2022/09/08 03:56:58;;;;;;;9.80;6.55;;;;;;;;;;5036764;28;20038;-95
2022/09/08 03:59:29;;;;;;;12.25;7.03;;;;;;;;;;5021523;28;20100;-94
2022/09/08 04:02:11;;;;;;;10.40;7.07;;;;;;;;;;5025127;28;20116;-95
2022/09/08 04:04:39;;;;;;;8.75;6.53;;;;;;;;;;5024823;28;20065;-94
2022/09/08 04:07:10;;;;;;;12.68;7.05;;;;;;;;;;5041083;28;20033;-94
2022/09/08 04:10:06;;;;;;;10.32;6.07;;;;;;;;;;5024103;28;20385;-89
2022/09/08 04:12:47;;;;;;;11.50;6.47;;;;;;;;;;5053415;28;20041;-89
2022/09/08 04:15:42;;;;;;;12.37;7.07;;;;;;;;;;5035587;28;20943;-89
2022/09/08 04:18:17;;;;;;;10.93;6.55;;;;;;;;;;5038930;28;20301;-89
2022/09/08 04:21:01;;;;;;;11.35;6.53;;;;;;;;;;5051761;28;20385;-89
2022/09/08 04:23:30;;;;;;;9.35;6.07;;;;;;;;;;5037236;28;20041;-89
2022/09/08 04:26:11;;;;;;;8.82;6.05;;;;;;;;;;5034507;28;20053;-89
2022/09/08 04:28:39;;;;;;;11.10;6.30;;;;;;;;;;5036198;28;21036;-89
2022/09/08 04:31:13;;;;;;;11.77;6.13;;;;;;;;;;5036804;28;20045;-89
2022/09/08 04:33:42;;;;;;;8.80;5.95;;;;;;;;;;5068598;28;20088;-89
2022/09/08 04:36:16;;;;;;;10.38;6.30;;;;;;;;;;5035712;28;20045;-88
2022/09/08 04:39:07;;;;;;;10.45;5.82;;;;;;;;;;5034497;28;20120;-89
2022/09/08 04:41:39;;;;;;;9.63;6.05;;;;;;;;;;5003807;28;20465;-89
2022/09/08 04:44:11;;;;;;;11.43;5.95;;;;;;;;;;5045664;28;20053;-89
2022/09/08 04:47:08;;;;;;;9.15;6.57;;;;;;;;;;5034880;28;20121;-89
2022/09/08 04:50:01;;;;;;;10.32;5.82;;;;;;;;;;5031970;28;20501;-95
2022/09/08 04:52:29;;;;;;;13.88;6.43;;;;;;;;;;5036186;28;20450;-93
2022/09/08 04:55:23;;;;;;;12.40;6.10;;;;;;;;;;5056108;28;20041;-93
2022/09/08 04:57:51;;;;;;;10.63;6.13;;;;;;;;;;5037711;28;20069;-93
2022/09/08 05:00:19;;;;;;;9.73;5.97;;;;;;;;;;5030839;28;20045;-94
2022/09/08 05:02:48;;;;;;;8.20;5.78;;;;;;;;;;5023098;28;20174;-93
2022/09/08 05:05:17;;;;;;;8.05;5.90;;;;;;;;;;5043508;28;20440;-93
2022/09/08 05:07:52;;;;;;;8.85;6.57;;;;;;;;;;5018196;28;20059;-93
2022/09/08 05:10:48;;;;;;;9.02;5.43;;;;;;;;;;5061315;28;20442;-89
2022/09/08 05:13:41;;;;;;;10.10;6.28;;;;;;;;;;5054625;28;20614;-89
2022/09/08 05:16:16;;;;;;;8.02;5.65;;;;;;;;;;5019845;28;20041;-88
2022/09/08 05:18:51;;;;;;;8.57;5.55;;;;;;;;;;5015291;28;20089;-89
2022/09/08 05:21:23;;;;;;;11.00;5.47;;;;;;;;;;5050641;28;20095;-89
2022/09/08 05:24:00;;;;;;;7.32;4.97;;;;;;;;;;5049830;28;20052;-89
2022/09/08 05:26:28;;;;;;;9.02;5.50;;;;;;;;;;5036028;28;20134;-89
2022/09/08 05:28:58;;;;;;;8.10;5.50;;;;;;;;;;5021338;28;20493;-90
2022/09/08 05:31:28;;;;;;;9.25;5.70;;;;;;;;;;5021113;28;20061;-89
2022/09/08 05:33:59;;;;;;;7.63;5.72;;;;;;;;;;5033835;28;20502;-87
2022/09/08 05:36:55;;;;;;;9.45;4.88;;;;;;;;;;5049232;28;20170;-88
2022/09/08 05:39:23;;;;;;;8.43;5.20;;;;;;;;;;5068484;28;20045;-94
2022/09/08 05:41:51;;;;;;;11.50;5.63;;;;;;;;;;5029353;28;20076;-95
2022/09/08 05:44:19;;;;;;;9.27;5.38;;;;;;;;;;5013693;28;20055;-94
2022/09/08 05:46:47;;;;;;;7.95;4.50;;;;;;;;;;5022766;28;20048;-94
2022/09/08 05:49:39;;;;;;;9.25;5.10;;;;;;;;;;5054609;28;20045;-88
2022/09/08 05:52:11;;;;;;;9.65;5.13;;;;;;;;;;5018822;28;20049;-89
2022/09/08 05:54:40;;;;;;;9.35;5.30;;;;;;;;;;5050182;28;20043;-87
2022/09/08 05:57:19;;;;;;;10.48;5.20;;;;;;;;;;5033974;28;20076;-86
2022/09/08 05:59:47;;;;;;;8.90;5.05;;;;;;;;;;5040935;28;20045;-96
2022/09/08 06:02:23;;;;;;;7.95;5.07;;;;;;;;;;5057695;28;20033;-96
2022/09/08 06:04:51;;;;;;;9.30;5.32;;;;;;;;;;5009690;28;20119;-95
2022/09/08 06:07:25;;;;;;;8.30;5.10;;;;;;;;;;5037964;28;20050;-95
2022/09/08 06:09:53;;;;;;;9.88;4.55;;;;;;;;;;5039335;28;20050;-95
2022/09/08 06:12:21;;;;;;;7.50;4.80;;;;;;;;;;5053174;28;20056;-96
2022/09/08 06:14:53;;;;;;;8.80;5.63;;;;;;;;;;5006186;28;20053;-96
2022/09/08 06:17:25;;;;;;;7.88;4.53;;;;;;;;;;5001431;28;20061;-89
2022/09/08 06:19:53;;;;;;;8.93;4.55;;;;;;;;;;5037962;28;20095;-96
2022/09/08 06:22:25;;;;;;;7.78;4.53;;;;;;;;;;5019780;28;20050;-96
2022/09/08 06:25:00;;;;;;;8.25;4.90;;;;;;;;;;5025323;28;20034;-96
2022/09/08 06:30:50;;;;;;;7.53;3.50;;;;;;;;;;5027749;28;20048;-88
2022/09/08 06:33:49;;;;;;;7.30;4.22;;;;;;;;;;5016405;28;20046;-88
2022/09/08 06:36:29;;;;;;;8.93;4.32;;;;;;;;;;5045813;28;20045;-89
2022/09/08 06:39:51;;;;;;;6.30;3.97;;;;;;;;;;5041575;28;20466;-96
2022/09/08 06:43:17;;;;;;;7.65;3.78;;;;;;;;;;5066873;28;20113;-96
2022/09/08 06:45:52;;;;;;;6.88;3.83;;;;;;;;;;5039431;28;20056;-96
2022/09/08 06:48:37;;;;;;;6.70;3.90;;;;;;;;;;5040349;28;20135;-89
2022/09/08 06:51:33;;;;;;;6.78;3.58;;;;;;;;;;5028265;28;20038;-88
2022/09/08 06:54:08;;;;;;;6.85;3.72;;;;;;;;;;5051564;28;20121;-89
2022/09/08 06:57:11;;;;;;;7.05;4.20;;;;;;;;;;5054472;28;20044;-88
2022/09/08 07:05:03;;;;;;;5.63;3.83;;;;;;;;;;5014652;28;20040;-96
2022/09/08 07:07:44;;;;;;;9.77;4.13;;;;;;;;;;4966868;28;20131;-96
2022/09/08 07:10:50;;;;;;;7.32;3.70;;;;;;;;;;4970242;28;20043;-95
2022/09/08 07:13:50;;;;;;;8.63;4.05;;;;;;;;;;4957607;28;20074;-96
2022/09/08 07:16:44;;;;;;;8.25;3.83;;;;;;;;;;4952675;28;20042;-96
2022/09/08 07:19:46;;;;;;;5.88;3.55;;;;;;;;;;4947134;28;20052;-89
2022/09/08 07:22:37;;;;;;;7.80;3.85;;;;;;;;;;4961358;28;20057;-88
2022/09/08 07:25:25;;;;;;;5.78;3.58;;;;;;;;;;4976240;28;20046;-89
2022/09/08 07:28:10;;;;;;;5.55;3.53;;;;;;;;;;4988432;28;20106;-96
2022/09/08 07:30:41;;;;;;;7.25;3.80;;;;;;;;;;4952947;28;20054;-96
2022/09/08 07:33:22;;;;;;;4.97;3.50;;;;;;;;;;4974378;28;20125;-95
2022/09/08 07:35:59;;;;;;;6.43;3.35;;;;;;;;;;4955183;28;20050;-96
2022/09/08 07:38:56;;;;;;;7.00;4.15;;;;;;;;;;4949213;28;20058;-88
2022/09/08 07:41:34;;;;;;;10.07;3.58;;;;;;;;;;4986363;28;20046;-89
2022/09/08 07:44:13;;;;;;;6.18;3.20;;;;;;;;;;4996891;28;20042;-88
2022/09/08 07:46:47;;;;;;;9.60;3.58;;;;;;;;;;5037529;28;20037;-88
2022/09/08 07:49:41;;;;;;;7.82;3.25;;;;;;;;;;5022945;28;20053;-88
2022/09/08 07:53:02;;;;;;;9.50;3.10;;;;;;;;;;5050536;28;20037;-89
2022/09/08 07:55:41;;;;;;;7.45;3.55;;;;;;;;;;5068536;28;20109;-88
2022/09/08 07:58:55;;;;;;;8.13;3.40;;;;;;;;;;5039595;28;20507;-89
2022/09/08 08:01:39;;;;;;;7.28;3.67;;;;;;;;;;5028799;28;20049;-88
2022/09/08 08:04:41;;;;;;;6.97;3.30;;;;;;;;;;5034789;28;20037;-87
2022/09/08 08:07:47;;;;;;;8.93;3.28;;;;;;;;;;4965324;28;20045;-89
2022/09/08 08:10:33;;;;;;;8.20;3.40;;;;;;;;;;4991114;28;20050;-96
2022/09/08 08:13:22;;;;;;;5.63;3.00;;;;;;;;;;4988403;28;20042;-96
2022/09/08 08:16:15;;;;;;;9.50;3.30;;;;;;;;;;4988646;28;20034;-96
2022/09/08 08:19:36;;;;;;;8.43;2.97;;;;;;;;;;4984957;28;20105;-90
2022/09/08 08:22:19;;;;;;;5.18;2.88;;;;;;;;;;4981278;28;20422;-90
2022/09/08 08:25:00;;;;;;;6.45;3.10;;;;;;;;;;4994199;28;20122;-89
2022/09/08 08:27:42;;;;;;;6.93;2.78;;;;;;;;;;5012649;28;20039;-96
2022/09/08 08:30:22;;;;;;;7.35;3.42;;;;;;;;;;5000394;28;20073;-88
2022/09/08 08:33:16;;;;;;;7.63;3.03;;;;;;;;;;4981761;28;20049;-89
2022/09/08 08:35:53;;;;;;;4.85;2.80;;;;;;;;;;4998246;28;20054;-88
2022/09/08 08:38:32;;;;;;;9.38;2.70;;;;;;;;;;4969553;28;20042;-89
2022/09/08 08:41:22;;;;;;;6.25;3.20;;;;;;;;;;4978529;28;20046;-89
2022/09/08 08:44:21;;;;;;;7.40;3.40;;;;;;;;;;5005060;28;20116;-89
2022/09/08 08:47:19;;;;;;;6.15;3.00;;;;;;;;;;5066678;28;20037;-89
2022/09/08 08:50:20;;;;;;;9.93;3.05;;;;;;;;;;5022306;28;20048;-96
2022/09/08 08:53:12;;;;;;;5.38;2.63;;;;;;;;;;5054817;28;20046;-96
2022/09/08 08:56:19;;;;;;;7.38;2.92;;;;;;;;;;5035705;28;20072;-96
2022/09/08 08:59:29;;;;;;;5.25;2.67;;;;;;;;;;5049234;28;20119;-89
2022/09/08 09:02:14;;;;;;;7.25;3.08;;;;;;;;;;5019922;28;20111;-88
2022/09/08 09:05:36;;;;;;;5.38;2.53;;;;;;;;;;5031891;28;20038;-89
2022/09/08 09:08:52;;;;;;;5.97;2.70;;;;;;;;;;5065720;28;20044;-89
2022/09/08 09:11:49;;;;;;;6.00;2.22;;;;;;;;;;5016334;28;20092;-89
2022/09/08 09:15:03;;;;;;;6.03;3.30;;;;;;;;;;5037230;28;20044;-89
2022/09/08 09:18:19;;;;;;;5.70;2.67;;;;;;;;;;5017410;28;20068;-89
2022/09/08 09:21:58;;;;;;;8.35;3.15;;;;;;;;;;5034797;28;20049;-88
2022/09/08 09:25:11;;;;;;;9.85;2.65;;;;;;;;;;5033194;28;20056;-89
2022/09/08 09:27:48;;;;;;;4.55;2.70;;;;;;;;;;5047157;28;20045;-88
2022/09/08 09:30:50;;;;;;;6.35;2.70;;;;;;;;;;5007024;28;20037;-96
2022/09/08 09:34:08;;;;;;;5.65;2.88;;;;;;;;;;5039476;28;20104;-95
2022/09/08 09:37:17;;;;;;;6.05;2.90;;;;;;;;;;5038549;28;20073;-96
2022/09/08 09:39:58;;;;;;;7.30;2.70;;;;;;;;;;5054231;28;20122;-95
2022/09/08 09:43:14;;;;;;;6.60;2.60;;;;;;;;;;5054911;28;20056;-96
2022/09/08 09:46:00;;;;;;;5.82;2.80;;;;;;;;;;5024088;28;20046;-96
2022/09/08 09:49:03;;;;;;;7.82;2.65;;;;;;;;;;5035117;28;20054;-89
2022/09/08 09:52:14;;;;;;;7.63;3.28;;;;;;;;;;5045494;28;20133;-89
2022/09/08 09:55:17;;;;;;;9.50;2.58;;;;;;;;;;5045119;28;20038;-89
2022/09/08 09:58:07;;;;;;;8.45;2.88;;;;;;;;;;5038245;28;20083;-96
2022/09/08 10:01:16;;;;;;;8.23;2.70;;;;;;;;;;5026208;28;20038;-96
2022/09/08 10:04:12;;;;;;;5.28;2.80;;;;;;;;;;5013827;28;20054;-96
2022/09/08 10:07:02;;;;;;;7.18;3.25;;;;;;;;;;5042460;28;20025;-96
2022/09/08 10:09:54;;;;;;;7.82;3.15;;;;;;;;;;5037875;28;20094;-89
2022/09/08 10:12:39;;;;;;;4.85;2.80;;;;;;;;;;5031400;28;20049;-89
2022/09/08 10:15:36;;;;;;;8.95;3.00;;;;;;;;;;5033714;28;20038;-90
2022/09/08 10:18:36;;;;;;;7.88;3.28;;;;;;;;;;5054326;28;20057;-89
2022/09/08 10:22:07;;;;;;;5.63;3.15;;;;;;;;;;5022193;28;20049;-89
2022/09/08 10:24:57;;;;;;;6.35;3.03;;;;;;;;;;5035735;28;20061;-89
2022/09/08 10:27:42;;;;;;;9.40;3.40;;;;;;;;;;5034544;28;20061;-89
2022/09/08 10:30:33;;;;;;;7.55;3.20;;;;;;;;;;5033220;28;20050;-96
2022/09/08 10:33:03;;;;;;;6.18;3.33;;;;;;;;;;5016193;28;20148;-96
2022/09/08 10:35:37;;;;;;;7.18;3.28;;;;;;;;;;5004373;28;20056;-96
2022/09/08 10:38:19;;;;;;;8.05;3.00;;;;;;;;;;5018580;28;20126;-96
2022/09/08 10:40:56;;;;;;;6.78;3.60;;;;;;;;;;5038300;28;20050;-96
2022/09/08 10:43:37;;;;;;;5.75;3.20;;;;;;;;;;5022586;28;20054;-96
2022/09/08 10:47:04;;;;;;;6.78;3.45;;;;;;;;;;5026466;28;20084;-95
2022/09/08 10:50:14;;;;;;;6.28;3.03;;;;;;;;;;5043758;28;20063;-96
2022/09/08 10:53:12;;;;;;;8.32;3.55;;;;;;;;;;5025564;28;20046;-96
2022/09/08 10:56:21;;;;;;;7.05;3.58;;;;;;;;;;5061010;28;20145;-96
2022/09/08 10:59:39;;;;;;;8.23;3.65;;;;;;;;;;5058510;28;20045;-89
2022/09/08 11:02:50;;;;;;;11.00;4.15;;;;;;;;;;5065485;28;20033;-89
2022/09/08 11:05:46;;;;;;;7.47;3.55;;;;;;;;;;5051243;28;20159;-89
2022/09/08 11:09:03;;;;;;;8.40;4.03;;;;;;;;;;5058088;28;20064;-95
2022/09/08 11:12:07;;;;;;;11.05;4.50;;;;;;;;;;5033261;28;20038;-95
2022/09/08 11:19:27;;;;;;;7.68;4.05;;;;;;;;;;4996867;28;20046;-89
2022/09/08 11:22:26;;;;;;;7.45;4.28;;;;;;;;;;4984287;28;20149;-89
2022/09/08 11:25:20;;;;;;;10.85;4.90;;;;;;;;;;4961201;28;20043;-89
2022/09/08 11:28:15;;;;;;;11.85;5.10;;;;;;;;;;4989231;28;20039;-89
2022/09/08 11:31:05;;;;;;;8.85;4.88;;;;;;;;;;4982966;28;20054;-89
2022/09/08 11:33:57;;;;;;;8.50;4.95;;;;;;;;;;4995087;28;20054;-89
2022/09/08 11:36:31;;;;;;;10.50;5.10;;;;;;;;;;4983391;28;20046;-89
2022/09/08 11:39:39;;;;;;;8.05;5.30;;;;;;;;;;5013548;28;20050;-95
2022/09/08 11:42:46;;;;;;;7.32;4.65;;;;;;;;;;4989778;28;20054;-95
2022/09/08 11:45:50;;;;;;;8.98;5.20;;;;;;;;;;5004459;28;20046;-95
2022/09/08 11:48:36;;;;;;;12.40;5.05;;;;;;;;;;4994219;28;20066;-88
2022/09/08 11:51:33;;;;;;;8.45;4.57;;;;;;;;;;4989008;28;20050;-88
2022/09/08 11:55:07;;;;;;;9.40;4.85;;;;;;;;;;5054917;28;20048;-89
2022/09/08 11:58:07;;;;;;;7.13;4.55;;;;;;;;;;5019518;28;20080;-96
2022/09/08 12:04:32;;;;;;;8.30;4.55;;;;;;;;;;5051552;28;20116;-89
2022/09/08 12:07:26;;;;;;;9.02;5.00;;;;;;;;;;5049143;28;20125;-95
2022/09/08 12:10:11;;;;;;;;;;;;;;;;;;5030821;28;20046;-89
2022/09/08 12:13:23;;;;;;;10.05;5.43;;;;;;;;;;5040057;28;19925;-89
2022/09/08 12:16:04;;;;;;;8.02;5.15;;;;;;;;;;5068642;28;20144;-88
2022/09/08 12:19:00;;;;;;;15.02;5.43;;;;;;;;;;5010828;28;20038;-88
2022/09/08 12:22:07;;;;;;;12.30;5.85;;;;;;;;;;5032354;28;20140;-89
2022/09/08 12:24:54;;;;;;;11.82;5.63;;;;;;;;;;5062907;28;20060;-89
2022/09/08 12:28:18;;;;;;;12.60;6.40;;;;;;;;;;5036403;28;20029;-95
2022/09/08 12:36:13;;;;;;;12.13;5.40;;;;;;;;;;5035695;28;20037;-96
2022/09/08 12:39:20;;;;;;;10.38;5.50;;;;;;;;;;5019740;28;20056;-95
2022/09/08 12:42:08;;;;;;;9.32;5.15;;;;;;;;;;5023849;28;20041;-95
2022/09/08 12:44:50;;;;;;;11.10;5.68;;;;;;;;;;5013522;28;20050;-95
2022/09/08 12:47:43;;;;;;;10.18;6.07;;;;;;;;;;4968979;28;20495;-92
2022/09/08 12:51:00;;;;;;;10.15;6.22;;;;;;;;;;5014713;28;20046;-94
2022/09/08 12:54:01;;;;;;;10.88;5.72;;;;;;;;;;5020872;28;20042;-92
2022/09/08 12:57:12;;;;;;;10.63;5.65;;;;;;;;;;4996772;28;20108;-94
2022/09/08 13:00:08;;;;;;;13.88;6.30;;;;;;;;;;5001573;28;20045;-93
2022/09/08 13:03:32;;;;;;;8.70;6.45;;;;;;;;;;5022424;28;20056;-93
2022/09/08 13:06:50;;;;;;;9.35;5.65;;;;;;;;;;5033349;28;20029;-95
2022/09/08 13:10:28;;;;;;;8.15;5.40;;;;;;;;;;5037295;28;20046;-93
2022/09/08 13:13:43;;;;;;;7.30;4.60;;;;;;;;;;5002141;28;20050;-94
2022/09/08 13:17:08;;;;;;;7.80;5.18;;;;;;;;;;5034197;28;20569;-94
2022/09/08 13:20:19;;;;;;;7.65;5.18;;;;;;;;;;5011078;28;20037;-87
2022/09/08 13:23:43;;;;;;;7.63;5.20;;;;;;;;;;5013144;28;20061;-88
2022/09/08 13:26:14;;;;;;;8.82;5.65;;;;;;;;;;4992781;28;20191;-87
2022/09/08 13:29:45;;;;;;;8.10;5.35;;;;;;;;;;5019673;28;20038;-93
2022/09/08 13:33:21;;;;;;;8.00;5.60;;;;;;;;;;5005610;28;20402;-93
2022/09/08 13:35:58;;;;;;;8.35;5.53;;;;;;;;;;5023426;28;20125;-94
2022/09/08 13:38:41;;;;;;;12.07;5.88;;;;;;;;;;5005023;28;20050;-93
2022/09/08 13:41:41;;;;;;;7.25;5.45;;;;;;;;;;5022952;28;20056;-93
2022/09/08 13:44:58;;;;;;;7.18;4.75;;;;;;;;;;5008361;28;20045;-93
2022/09/08 13:48:22;;;;;;;8.50;5.32;;;;;;;;;;5045709;28;20037;-90
2022/09/08 13:52:08;;;;;;;7.47;5.22;;;;;;;;;;5030161;28;20041;-89
2022/09/08 13:55:06;;;;;;;7.45;4.85;;;;;;;;;;4991902;28;20065;-89
2022/09/08 13:58:21;;;;;;;7.57;4.90;;;;;;;;;;4981365;28;20072;-89
2022/09/08 14:01:27;;;;;;;7.28;4.57;;;;;;;;;;4978185;28;20081;-88
2022/09/08 14:04:16;;;;;;;9.30;5.13;;;;;;;;;;4991494;28;20050;-90
2022/09/08 14:07:06;;;;;;;7.78;4.40;;;;;;;;;;4990854;28;20145;-92
2022/09/08 14:10:13;;;;;;;8.02;4.57;;;;;;;;;;4988084;28;20037;-93
2022/09/08 14:13:03;;;;;;;7.78;4.53;;;;;;;;;;5001639;28;20045;-93
2022/09/08 14:15:41;;;;;;;8.82;4.53;;;;;;;;;;4984372;28;20054;-93
2022/09/08 14:18:38;;;;;;;8.35;5.15;;;;;;;;;;4982282;28;20048;-92
2022/09/08 14:21:41;;;;;;;5.82;4.20;;;;;;;;;;4995373;28;20050;-92
2022/09/08 14:24:25;;;;;;;7.20;5.05;;;;;;;;;;4993967;28;20092;-92
2022/09/08 14:27:08;;;;;;;;;;;;;;;;;;;;;
2022/09/08 14:30:00;;;;;;;7.47;5.00;;;;;;;;;;5010299;28;20089;-92
2022/09/08 14:32:33;;;;;;;6.10;4.50;;;;;;;;;;5052817;28;20114;-92
2022/09/08 14:35:42;;;;;;;6.47;4.70;;;;;;;;;;5027657;28;20046;-92
2022/09/08 14:38:34;;;;;;;7.88;5.43;;;;;;;;;;5035347;28;20041;-93
2022/09/08 14:41:19;;;;;;;8.35;4.93;;;;;;;;;;5037843;28;20037;-93
2022/09/08 14:43:47;;;;;;;8.05;4.70;;;;;;;;;;5025396;28;20060;-93
2022/09/08 14:46:31;;;;;;;8.43;5.80;;;;;;;;;;5056581;28;20071;-93
2022/09/08 14:49:13;;;;;;;8.63;6.00;;;;;;;;;;5024810;28;20564;-94
2022/09/08 14:51:44;;;;;;;11.27;6.18;;;;;;;;;;5044007;28;20509;-92
2022/09/08 14:54:26;;;;;;;7.53;5.38;;;;;;;;;;5039483;28;20096;-93
2022/09/08 14:57:16;;;;;;;7.72;5.43;;;;;;;;;;5040667;28;20125;-93
2022/09/08 15:00:15;;;;;;;8.93;5.40;;;;;;;;;;5038210;28;20053;-92
2022/09/08 15:02:51;;;;;;;9.30;5.60;;;;;;;;;;5035608;28;20048;-92
2022/09/08 15:05:33;;;;;;;7.00;5.50;;;;;;;;;;5029228;28;20068;-92
2022/09/08 15:08:11;;;;;;;6.72;5.22;;;;;;;;;;5031061;28;20045;-93
2022/09/08 15:10:57;;;;;;;8.00;5.30;;;;;;;;;;5039340;28;20045;-92
2022/09/08 15:13:33;;;;;;;7.72;5.10;;;;;;;;;;5054949;28;20101;-95
2022/09/08 15:16:26;;;;;;;7.30;5.22;;;;;;;;;;5059722;28;20128;-93
2022/09/08 15:19:11;;;;;;;6.40;4.88;;;;;;;;;;5027942;28;20133;-94
2022/09/08 15:22:27;;;;;;;8.47;5.80;;;;;;;;;;5021341;28;20037;-94
2022/09/08 15:25:13;;;;;;;6.70;4.78;;;;;;;;;;5020706;28;20078;-93
2022/09/08 15:27:47;;;;;;;7.68;4.40;;;;;;;;;;5018451;28;20441;-94
2022/09/08 15:30:29;;;;;;;9.38;5.32;;;;;;;;;;5063903;28;20113;-94
2022/09/08 15:33:12;;;;;;;7.28;4.97;;;;;;;;;;5027820;28;20049;-94
2022/09/08 15:35:48;;;;;;;9.20;4.93;;;;;;;;;;5045188;28;20049;-94
2022/09/08 15:39:03;;;;;;;8.40;5.60;;;;;;;;;;5060129;28;20104;-92
2022/09/08 15:41:45;;;;;;;7.25;4.35;;;;;;;;;;5017681;28;20497;-91
2022/09/08 15:44:23;;;;;;;6.45;4.57;;;;;;;;;;5037761;28;20037;-92
2022/09/08 15:47:13;;;;;;;7.30;4.80;;;;;;;;;;5041290;28;20056;-92
2022/09/08 15:50:33;;;;;;;6.35;4.30;;;;;;;;;;5030622;28;20131;-94
2022/09/08 15:53:25;;;;;;;7.88;4.00;;;;;;;;;;5026703;28;20045;-94
2022/09/08 15:55:58;;;;;;;6.80;3.97;;;;;;;;;;5045029;28;20404;-94
2022/09/08 15:59:22;;;;;;;5.97;4.00;;;;;;;;;;5052146;28;20041;-95
2022/09/08 16:06:11;;;;;;;5.15;3.90;;;;;;;;;;5052527;28;20033;-93
2022/09/08 16:08:54;;;;;;;9.88;4.05;;;;;;;;;;5041767;28;20030;-94
2022/09/08 16:11:41;;;;;;;10.82;5.10;;;;;;;;;;5028509;28;20038;-94
2022/09/08 16:14:29;;;;;;;8.55;4.43;;;;;;;;;;5029882;28;20045;-95
2022/09/08 16:17:16;;;;;;;5.72;3.80;;;;;;;;;;5048021;28;20091;-95
2022/09/08 16:20:10;;;;;;;5.72;3.28;;;;;;;;;;5036541;28;20452;-90
2022/09/08 16:22:43;;;;;;;5.63;3.60;;;;;;;;;;5029795;28;20077;-91
2022/09/08 16:25:12;;;;;;;5.07;3.35;;;;;;;;;;5066053;28;20120;-90
2022/09/08 16:27:57;;;;;;;6.10;3.50;;;;;;;;;;5059624;28;20038;-91
2022/09/08 16:36:27;;;;;;;5.43;3.00;;;;;;;;;;4663211;26;20077;-88
2022/09/08 16:39:15;;;;;;;4.43;3.10;;;;;;;;;;4981933;28;20077;-89
2022/09/08 16:41:51;;;;;;;4.25;2.75;;;;;;;;;;5015503;28;20037;-88
2022/09/08 16:44:31;;;;;;;6.72;2.97;;;;;;;;;;4992837;28;20123;-86
2022/09/08 16:47:09;;;;;;;4.32;2.55;;;;;;;;;;4999926;23;20998;-91
2022/09/08 16:49:39;;;;;;;4.38;2.90;;;;;;;;;;4969089;28;20145;-91
2022/09/08 16:52:20;;;;;;;4.15;3.00;;;;;;;;;;4937173;28;20134;-90
2022/09/08 16:55:49;;;;;;;5.97;3.20;;;;;;;;;;4984839;28;20505;-91
2022/09/08 16:58:28;;;;;;;5.32;3.20;;;;;;;;;;4955626;28;20199;-91
2022/09/08 17:01:01;;;;;;;4.82;3.40;;;;;;;;;;4960210;28;20042;-90
2022/09/08 17:11:10;;;;;;;6.57;3.58;;;;;;;;;;4988103;28;20061;-92
2022/09/08 17:17:18;;;;;;;4.93;3.40;;;;;;;;;;4985233;28;20046;-90
2022/09/08 17:19:47;;;;;;;5.05;3.40;;;;;;;;;;5014351;23;20038;-93
